Time;durP1;ratioP1;P1;durP2;ratioP2;P2;SDS_P1;SDS_P2;PMS_P1;PMS_P2;Temp;Humidity;BMP_temperature;BMP_pressure;BME280_temperature;BME280_humidity;BME280_pressure;Samples;Min_cycle;Max_cycle;Signal;HPM_P1;HPM_P2
2023/09/12 00:01:22;;;;;;;5.07;4.87;;;25.10;53.60;;;;;;5037382;28;20230;-66
2023/09/12 00:03:47;;;;;;;4.60;4.40;;;25.10;53.60;;;;;;5041109;28;20240;-69
2023/09/12 00:06:12;;;;;;;4.80;4.50;;;25.10;53.60;;;;;;5044213;28;20185;-68
2023/09/12 00:08:38;;;;;;;4.10;3.90;;;25.10;53.60;;;;;;5041057;28;20201;-66
2023/09/12 00:11:11;;;;;;;4.23;4.03;;;25.10;53.60;;;;;;5040121;28;20217;-72
2023/09/12 00:13:37;;;;;;;4.27;4.07;;;25.10;53.60;;;;;;5041243;28;20259;-65
2023/09/12 00:16:05;;;;;;;4.33;4.13;;;25.10;54.40;;;;;;5041739;28;20451;-66
2023/09/12 00:18:30;;;;;;;5.53;5.17;;;25.10;53.60;;;;;;5043113;28;20430;-69
2023/09/12 00:20:56;;;;;;;4.43;4.23;;;25.10;53.50;;;;;;5042827;28;20433;-70
2023/09/12 00:23:25;;;;;;;4.40;4.20;;;25.10;53.50;;;;;;5039581;28;20344;-68
2023/09/12 00:25:51;;;;;;;4.70;4.50;;;25.10;53.50;;;;;;5041757;28;20181;-65
2023/09/12 00:28:17;;;;;;;4.90;4.60;;;25.10;53.60;;;;;;5042668;28;21014;-66
2023/09/12 00:30:43;;;;;;;4.20;4.00;;;25.10;53.60;;;;;;5035073;28;20970;-72
2023/09/12 00:33:08;;;;;;;4.17;3.97;;;25.10;53.50;;;;;;5039865;28;20466;-68
2023/09/12 00:35:34;;;;;;;4.50;4.20;;;25.10;53.50;;;;;;5036325;28;20194;-70
2023/09/12 00:37:59;;;;;;;4.27;4.07;;;25.10;53.60;;;;;;5039012;28;20190;-69
2023/09/12 00:40:25;;;;;;;3.93;3.73;;;25.10;53.60;;;;;;5040978;28;20190;-72
2023/09/12 00:42:51;;;;;;;4.47;4.27;;;25.10;53.60;;;;;;5044285;28;20197;-66
2023/09/12 00:45:16;;;;;;;4.83;4.63;;;25.10;53.60;;;;;;5040241;28;20191;-71
2023/09/12 00:47:42;;;;;;;4.13;3.93;;;25.10;53.60;;;;;;5034365;28;20196;-65
2023/09/12 00:50:09;;;;;;;4.60;4.40;;;25.10;53.60;;;;;;5037399;28;20281;-64
2023/09/12 00:52:36;;;;;;;4.37;4.17;;;25.10;53.60;;;;;;5040225;28;20264;-66
2023/09/12 00:55:02;;;;;;;4.73;4.53;;;25.10;53.60;;;;;;5036263;28;20441;-64
2023/09/12 00:57:28;;;;;;;4.17;3.97;;;25.10;53.60;;;;;;5039015;28;20436;-75
2023/09/12 00:59:55;;;;;;;4.67;4.37;;;25.10;53.60;;;;;;5039620;28;20993;-66
2023/09/12 01:02:21;;;;;;;4.97;4.70;;;25.10;53.70;;;;;;5038273;28;20513;-69
2023/09/12 01:04:47;;;;;;;3.93;3.73;;;25.10;53.70;;;;;;5038299;28;22324;-65
2023/09/12 01:07:13;;;;;;;4.67;4.30;;;25.10;53.60;;;;;;5037588;28;20194;-65
2023/09/12 01:09:40;;;;;;;4.20;4.00;;;25.00;53.60;;;;;;5039728;28;20446;-67
2023/09/12 01:12:06;;;;;;;4.57;4.30;;;25.10;53.60;;;;;;5040588;28;20181;-68
2023/09/12 01:14:31;;;;;;;5.50;4.27;;;25.00;53.60;;;;;;5039406;28;20469;-69
2023/09/12 01:16:58;;;;;;;4.27;4.07;;;25.10;53.70;;;;;;5040214;28;20190;-66
2023/09/12 01:19:24;;;;;;;4.20;4.00;;;25.10;53.60;;;;;;5039491;28;20194;-64
2023/09/12 01:22:05;;;;;;;4.67;4.47;;;25.10;53.60;;;;;;5037979;28;20510;-65
2023/09/12 01:24:49;;;;;;;4.73;4.53;;;25.10;53.60;;;;;;5039986;28;20473;-68
2023/09/12 01:27:34;;;;;;;4.13;3.93;;;25.00;53.60;;;;;;5040457;28;20947;-65
2023/09/12 01:30:03;;;;;;;3.63;3.43;;;25.00;53.60;;;;;;5042522;28;20438;-67
2023/09/12 01:32:31;;;;;;;4.60;4.40;;;25.00;53.60;;;;;;5041662;28;20453;-70
2023/09/12 01:34:56;;;;;;;4.60;4.30;;;25.00;54.40;;;;;;5043482;28;20451;-66
2023/09/12 01:37:22;;;;;;;4.00;3.80;;;25.00;53.60;;;;;;5040214;28;20919;-67
2023/09/12 01:39:47;;;;;;;3.87;3.67;;;25.10;53.70;;;;;;5037957;28;20202;-73
2023/09/12 01:42:16;;;;;;;4.80;4.60;;;25.00;53.60;;;;;;5038943;28;20265;-65
2023/09/12 01:44:44;;;;;;;4.23;4.03;;;25.10;53.70;;;;;;5042802;28;20905;-65
2023/09/12 01:47:11;;;;;;;3.67;3.47;;;25.10;53.70;;;;;;5038116;28;20447;-64
2023/09/12 01:49:40;;;;;;;4.40;4.20;;;25.00;53.70;;;;;;5041288;28;20428;-65
2023/09/12 01:52:07;;;;;;;3.83;3.63;;;25.00;53.60;;;;;;5038797;28;20430;-65
2023/09/12 01:54:34;;;;;;;4.00;3.80;;;25.10;53.70;;;;;;5037509;28;20471;-67
2023/09/12 01:57:01;;;;;;;4.30;4.10;;;25.00;53.60;;;;;;5036940;28;20451;-66
2023/09/12 01:59:27;;;;;;;3.87;3.67;;;25.00;53.70;;;;;;5036988;28;20439;-65
2023/09/12 02:01:53;;;;;;;4.40;4.20;;;25.10;54.50;;;;;;5039584;28;20548;-66
2023/09/12 02:04:18;;;;;;;4.40;4.10;;;25.00;53.70;;;;;;5036801;28;20474;-66
2023/09/12 02:06:44;;;;;;;4.50;4.20;;;25.00;53.70;;;;;;5037827;28;20566;-68
2023/09/12 02:09:09;;;;;;;4.30;4.10;;;25.00;53.80;;;;;;5041403;28;20240;-65
2023/09/12 02:11:35;;;;;;;4.40;4.20;;;25.00;53.70;;;;;;5039569;28;20264;-67
2023/09/12 02:14:00;;;;;;;4.93;4.63;;;25.00;53.70;;;;;;5041044;28;20206;-65
2023/09/12 02:16:26;;;;;;;4.23;4.03;;;25.10;53.70;;;;;;5038335;28;20208;-69
2023/09/12 02:18:51;;;;;;;4.20;4.00;;;25.00;53.70;;;;;;5035671;28;20186;-67
2023/09/12 02:21:17;;;;;;;4.57;4.37;;;25.10;53.70;;;;;;5037519;28;20288;-73
2023/09/12 02:23:42;;;;;;;5.00;4.80;;;25.00;53.70;;;;;;5040036;28;20205;-68
2023/09/12 02:26:08;;;;;;;4.30;4.10;;;25.10;53.70;;;;;;5037986;28;20192;-66
2023/09/12 02:28:33;;;;;;;4.63;4.43;;;25.10;53.80;;;;;;5037520;28;20983;-65
2023/09/12 02:30:59;;;;;;;4.30;4.10;;;25.10;53.80;;;;;;5036025;28;20190;-71
2023/09/12 02:33:24;;;;;;;4.53;4.33;;;25.00;53.80;;;;;;5038388;28;20225;-68
2023/09/12 02:35:50;;;;;;;3.87;3.67;;;25.00;53.80;;;;;;5039414;28;20209;-66
2023/09/12 02:38:17;;;;;;;4.07;3.87;;;25.00;53.70;;;;;;5035492;28;20642;-67
2023/09/12 02:40:43;;;;;;;3.93;3.73;;;25.00;53.80;;;;;;5038142;28;20585;-70
2023/09/12 02:43:08;;;;;;;4.50;4.30;;;25.00;53.70;;;;;;5037294;28;20439;-70
2023/09/12 02:45:34;;;;;;;4.17;3.97;;;25.10;53.80;;;;;;5037130;28;20248;-65
2023/09/12 02:47:59;;;;;;;4.37;4.17;;;25.10;53.80;;;;;;5036971;28;20201;-72
2023/09/12 02:50:25;;;;;;;3.73;3.53;;;25.00;53.80;;;;;;5035497;28;20187;-70
2023/09/12 02:52:50;;;;;;;4.57;4.37;;;25.00;53.80;;;;;;5039393;28;20207;-67
2023/09/12 02:55:16;;;;;;;4.60;4.40;;;25.10;53.80;;;;;;5037711;28;20185;-70
2023/09/12 02:57:41;;;;;;;4.00;3.80;;;25.00;53.70;;;;;;5036424;28;20205;-65
2023/09/12 03:00:09;;;;;;;4.00;3.80;;;25.00;53.80;;;;;;5038030;28;20185;-69
2023/09/12 03:02:34;;;;;;;4.40;4.10;;;25.00;53.80;;;;;;5038584;28;20226;-65
2023/09/12 03:05:01;;;;;;;4.20;4.00;;;25.00;53.80;;;;;;5034643;28;20443;-66
2023/09/12 03:07:27;;;;;;;4.47;4.20;;;25.00;53.80;;;;;;5040145;28;20186;-71
2023/09/12 03:09:52;;;;;;;4.67;4.47;;;25.00;54.60;;;;;;5035589;28;20439;-66
2023/09/12 03:12:18;;;;;;;3.93;3.73;;;25.00;53.80;;;;;;5033835;28;20252;-76
2023/09/12 03:14:43;;;;;;;4.10;3.90;;;25.00;54.60;;;;;;5035266;28;20271;-65
2023/09/12 03:17:09;;;;;;;4.10;3.90;;;25.00;53.70;;;;;;5040144;28;20209;-66
2023/09/12 03:19:34;;;;;;;4.27;4.07;;;25.00;53.80;;;;;;5038166;28;20247;-75
2023/09/12 03:22:00;;;;;;;4.03;3.83;;;25.00;53.80;;;;;;5036460;28;20218;-67
2023/09/12 03:24:25;;;;;;;4.10;3.90;;;25.00;53.80;;;;;;5037972;28;20205;-71
2023/09/12 03:26:51;;;;;;;4.07;3.87;;;25.00;53.80;;;;;;5037487;28;20339;-66
2023/09/12 03:29:17;;;;;;;4.97;4.70;;;25.00;53.80;;;;;;5038316;28;20273;-66
2023/09/12 03:31:43;;;;;;;4.47;4.17;;;25.00;53.80;;;;;;5038619;28;21287;-66
2023/09/12 03:34:08;;;;;;;4.20;4.00;;;25.00;53.80;;;;;;5039390;28;20213;-74
2023/09/12 03:36:34;;;;;;;4.40;4.20;;;25.00;53.90;;;;;;5040490;28;20193;-66
2023/09/12 03:38:59;;;;;;;3.83;3.63;;;25.00;53.80;;;;;;5038275;28;20210;-68
2023/09/12 03:41:25;;;;;;;4.60;4.40;;;25.00;53.80;;;;;;5037570;28;20186;-70
2023/09/12 03:43:55;;;;;;;4.50;4.30;;;25.00;53.90;;;;;;5037509;28;20558;-69
2023/09/12 03:46:21;;;;;;;4.10;3.90;;;25.00;53.80;;;;;;5038271;28;20236;-66
2023/09/12 03:48:46;;;;;;;4.53;4.33;;;25.00;53.90;;;;;;5037207;28;20431;-67
2023/09/12 03:51:13;;;;;;;4.70;4.50;;;25.00;54.00;;;;;;5036470;28;20473;-72
2023/09/12 03:53:38;;;;;;;3.93;3.73;;;25.00;53.90;;;;;;5035648;28;20688;-68
2023/09/12 03:56:04;;;;;;;4.10;3.90;;;25.00;53.90;;;;;;5036950;28;20508;-70
2023/09/12 03:58:30;;;;;;;4.07;3.87;;;25.00;53.90;;;;;;5038339;28;20221;-68
2023/09/12 04:00:55;;;;;;;4.20;4.00;;;25.00;54.00;;;;;;5036714;28;20617;-76
2023/09/12 04:03:21;;;;;;;4.37;4.17;;;25.00;53.90;;;;;;5037756;28;20206;-68
2023/09/12 04:05:47;;;;;;;5.00;4.70;;;25.00;53.90;;;;;;5037761;28;20187;-74
2023/09/12 04:08:13;;;;;;;4.70;4.47;;;25.00;53.90;;;;;;5038393;28;20440;-70
2023/09/12 04:10:39;;;;;;;4.10;3.90;;;25.00;53.90;;;;;;5036128;28;20280;-72
2023/09/12 04:13:04;;;;;;;4.53;4.33;;;25.00;53.90;;;;;;5036969;28;20570;-77
2023/09/12 04:15:30;;;;;;;4.80;4.40;;;25.00;54.00;;;;;;5037080;28;20187;-71
2023/09/12 04:17:55;;;;;;;4.43;4.23;;;25.00;53.80;;;;;;5034327;28;20245;-71
2023/09/12 04:20:21;;;;;;;4.60;4.40;;;25.10;53.90;;;;;;5032587;28;20257;-66
2023/09/12 04:22:46;;;;;;;5.07;4.87;;;25.00;53.70;;;;;;5030702;28;20206;-66
2023/09/12 04:25:12;;;;;;;4.90;4.50;;;25.10;53.70;;;;;;5030684;28;20187;-65
2023/09/12 04:27:37;;;;;;;4.67;4.47;;;25.10;53.70;;;;;;5032907;28;20189;-68
2023/09/12 04:30:03;;;;;;;4.87;4.67;;;25.10;53.70;;;;;;5028572;28;20197;-74
2023/09/12 04:32:29;;;;;;;4.17;3.97;;;25.10;53.70;;;;;;5036411;28;20195;-64
2023/09/12 04:34:55;;;;;;;5.20;4.97;;;25.10;53.70;;;;;;5040377;28;20193;-66
2023/09/12 04:37:20;;;;;;;4.60;4.40;;;25.10;53.70;;;;;;5039055;28;20463;-65
2023/09/12 04:39:46;;;;;;;4.90;4.67;;;25.10;53.70;;;;;;5038766;28;20191;-67
2023/09/12 04:42:12;;;;;;;5.00;4.70;;;25.10;53.60;;;;;;5041228;28;20239;-64
2023/09/12 04:44:40;;;;;;;4.70;4.43;;;25.10;53.60;;;;;;5037542;28;20193;-73
2023/09/12 04:47:05;;;;;;;4.97;4.70;;;25.10;53.70;;;;;;5036382;28;20218;-63
2023/09/12 04:49:31;;;;;;;5.00;4.70;;;25.10;53.60;;;;;;5037057;28;20966;-71
2023/09/12 04:51:56;;;;;;;4.73;4.50;;;25.10;53.60;;;;;;5039641;28;20186;-67
2023/09/12 04:54:22;;;;;;;5.50;5.20;;;25.10;53.60;;;;;;5038339;28;20210;-66
2023/09/12 04:56:47;;;;;;;4.93;4.63;;;25.10;53.60;;;;;;5039668;28;20285;-65
2023/09/12 04:59:13;;;;;;;4.60;4.40;;;25.10;53.60;;;;;;5038647;28;20866;-65
2023/09/12 05:01:38;;;;;;;5.20;4.90;;;25.10;53.70;;;;;;5032429;28;20269;-72
2023/09/12 05:04:04;;;;;;;5.17;4.87;;;25.10;53.70;;;;;;5051478;28;20654;-67
2023/09/12 05:06:30;;;;;;;5.40;5.10;;;25.10;53.60;;;;;;5034547;28;20198;-64
2023/09/12 05:08:55;;;;;;;4.73;4.50;;;25.10;53.60;;;;;;5031965;28;20272;-71
2023/09/12 05:11:24;;;;;;;4.43;4.23;;;25.10;53.70;;;;;;5032558;28;20179;-68
2023/09/12 05:13:50;;;;;;;5.97;5.57;;;25.10;53.80;;;;;;5032322;28;20218;-64
2023/09/12 05:16:15;;;;;;;4.60;4.40;;;25.10;53.70;;;;;;5031451;28;20447;-71
2023/09/12 05:18:41;;;;;;;5.27;4.97;;;25.10;53.70;;;;;;5030205;28;20230;-65
2023/09/12 05:21:06;;;;;;;5.43;5.13;;;25.10;53.70;;;;;;5029033;28;20192;-67
2023/09/12 05:23:32;;;;;;;4.93;4.63;;;25.10;53.70;;;;;;5034003;28;20221;-71
2023/09/12 05:25:57;;;;;;;4.90;4.60;;;25.10;53.70;;;;;;5026136;28;20712;-71
2023/09/12 05:28:23;;;;;;;5.30;4.80;;;25.10;53.70;;;;;;5035177;28;20192;-68
2023/09/12 05:30:49;;;;;;;6.33;4.97;;;25.10;53.70;;;;;;5026488;28;20190;-66
2023/09/12 05:33:16;;;;;;;5.57;5.17;;;25.10;53.70;;;;;;5032681;28;20308;-63
2023/09/12 05:35:41;;;;;;;5.33;4.93;;;25.10;53.70;;;;;;5033634;28;20194;-72
2023/09/12 05:38:07;;;;;;;5.37;4.97;;;25.10;53.70;;;;;;5033217;28;20458;-66
2023/09/12 05:40:33;;;;;;;5.43;5.03;;;25.10;53.80;;;;;;5034715;28;20189;-70
2023/09/12 05:42:58;;;;;;;5.00;4.80;;;25.10;53.80;;;;;;5035491;28;21205;-66
2023/09/12 05:45:24;;;;;;;5.40;5.10;;;25.10;53.80;;;;;;5032926;28;20214;-65
2023/09/12 05:47:50;;;;;;;5.53;5.10;;;25.10;53.80;;;;;;5028975;28;20181;-64
2023/09/12 05:50:16;;;;;;;5.30;4.90;;;25.10;53.70;;;;;;5032698;28;20186;-67
2023/09/12 05:52:42;;;;;;;5.33;5.00;;;25.10;53.80;;;;;;5032163;28;20734;-73
2023/09/12 05:55:08;;;;;;;6.03;5.73;;;25.10;53.70;;;;;;5028403;28;20301;-66
2023/09/12 05:57:34;;;;;;;5.80;5.40;;;25.10;54.00;;;;;;5027331;28;21203;-62
2023/09/12 05:59:59;;;;;;;5.80;5.47;;;25.10;53.60;;;;;;5030718;28;20434;-65
2023/09/12 06:02:26;;;;;;;5.40;5.10;;;25.10;53.70;;;;;;5029402;28;20283;-62
2023/09/12 06:04:52;;;;;;;5.90;5.40;;;25.10;53.70;;;;;;5028593;28;20566;-69
2023/09/12 06:07:17;;;;;;;5.67;5.33;;;25.10;53.70;;;;;;5030270;28;20444;-66
2023/09/12 06:09:43;;;;;;;5.77;5.37;;;25.10;53.70;;;;;;5033293;28;20201;-63
2023/09/12 06:12:08;;;;;;;6.27;5.90;;;25.10;53.70;;;;;;5032343;28;20221;-64
2023/09/12 06:14:34;;;;;;;5.80;5.50;;;25.10;53.70;;;;;;5031953;28;20219;-68
2023/09/12 06:16:59;;;;;;;5.20;4.90;;;25.10;53.70;;;;;;5029925;28;20194;-70
2023/09/12 06:19:25;;;;;;;6.67;6.20;;;25.10;53.60;;;;;;5034743;28;20300;-66
2023/09/12 06:21:50;;;;;;;6.63;6.20;;;25.10;53.60;;;;;;5029924;28;20320;-67
2023/09/12 06:24:23;;;;;;;5.73;5.37;;;25.10;54.40;;;;;;5033813;28;20189;-65
2023/09/12 06:26:49;;;;;;;6.90;6.40;;;25.10;53.60;;;;;;5032082;28;20190;-64
2023/09/12 06:29:15;;;;;;;5.67;5.37;;;25.10;53.70;;;;;;5033358;28;20434;-68
2023/09/12 06:31:41;;;;;;;6.13;5.73;;;25.10;53.70;;;;;;5029975;28;20431;-66
2023/09/12 06:34:08;;;;;;;6.90;6.40;;;25.10;53.70;;;;;;5031245;28;20214;-63
2023/09/12 06:36:33;;;;;;;6.40;6.00;;;25.10;53.70;;;;;;5033077;28;20980;-62
2023/09/12 06:39:00;;;;;;;6.37;5.97;;;25.10;53.80;;;;;;5035291;28;20439;-62
2023/09/12 06:41:26;;;;;;;7.20;6.80;;;25.10;53.70;;;;;;5033408;28;20702;-61
2023/09/12 06:43:52;;;;;;;6.67;6.27;;;25.10;53.70;;;;;;5035412;28;20481;-62
2023/09/12 06:46:18;;;;;;;6.73;6.23;;;25.10;53.80;;;;;;5035992;28;20526;-62
2023/09/12 06:48:44;;;;;;;6.30;5.80;;;25.10;53.70;;;;;;5033882;28;20437;-62
2023/09/12 06:51:11;;;;;;;5.90;5.50;;;25.10;53.70;;;;;;5032280;28;20332;-60
2023/09/12 06:53:39;;;;;;;5.80;5.50;;;25.10;53.80;;;;;;5032252;28;20973;-67
2023/09/12 06:56:05;;;;;;;5.77;5.47;;;25.10;53.80;;;;;;5033751;28;20454;-59
2023/09/12 06:58:31;;;;;;;6.10;5.70;;;25.10;53.80;;;;;;5034010;28;20442;-61
2023/09/12 07:01:07;;;;;;;5.50;5.10;;;25.10;53.80;;;;;;5033411;28;20449;-65
2023/09/12 07:03:34;;;;;;;5.47;5.17;;;25.10;53.80;;;;;;5033811;28;20449;-66
2023/09/12 07:06:00;;;;;;;6.17;5.83;;;25.10;53.80;;;;;;5034429;28;20466;-61
2023/09/12 07:08:26;;;;;;;6.23;5.70;;;25.10;53.80;;;;;;5035063;28;21082;-63
2023/09/12 07:10:54;;;;;;;6.07;5.57;;;25.10;53.80;;;;;;5033087;28;20202;-61
2023/09/12 07:13:21;;;;;;;5.30;5.00;;;25.10;53.80;;;;;;5033663;28;20297;-63
2023/09/12 07:15:47;;;;;;;5.63;5.20;;;25.10;53.80;;;;;;5033270;28;20674;-62
2023/09/12 07:18:12;;;;;;;5.53;5.23;;;25.10;53.80;;;;;;5032951;28;20941;-62
2023/09/12 07:20:38;;;;;;;5.90;5.40;;;25.10;53.80;;;;;;5031486;28;20284;-60
2023/09/12 07:23:03;;;;;;;6.20;5.70;;;25.10;53.80;;;;;;5037285;28;20243;-68
2023/09/12 07:25:29;;;;;;;5.47;5.07;;;25.10;53.80;;;;;;5033099;28;20204;-63
2023/09/12 07:27:54;;;;;;;5.50;5.10;;;25.10;53.80;;;;;;5032830;28;20650;-61
2023/09/12 07:30:20;;;;;;;5.80;5.40;;;25.10;53.80;;;;;;5034070;28;20200;-60
2023/09/12 07:32:45;;;;;;;5.00;4.70;;;25.10;53.80;;;;;;5035267;28;20180;-60
2023/09/12 07:35:11;;;;;;;5.10;4.77;;;25.10;53.80;;;;;;5035278;28;20198;-65
2023/09/12 07:37:36;;;;;;;5.70;5.30;;;25.10;53.80;;;;;;5034360;28;20269;-62
2023/09/12 07:40:09;;;;;;;4.73;4.50;;;25.10;53.80;;;;;;5034237;28;20280;-61
2023/09/12 07:42:35;;;;;;;5.47;5.17;;;25.10;53.80;;;;;;5033681;28;20263;-60
2023/09/12 07:45:03;;;;;;;5.10;4.80;;;25.10;53.80;;;;;;5029932;28;20465;-63
2023/09/12 07:47:28;;;;;;;5.53;5.17;;;25.10;53.80;;;;;;5035226;28;20240;-60
2023/09/12 07:49:54;;;;;;;5.33;5.03;;;25.10;53.80;;;;;;5034436;28;20843;-67
2023/09/12 07:52:19;;;;;;;5.80;5.30;;;25.10;53.80;;;;;;5031566;28;20641;-60
2023/09/12 07:54:45;;;;;;;5.20;4.90;;;25.10;53.80;;;;;;5032780;28;20762;-64
2023/09/12 07:57:10;;;;;;;5.40;5.10;;;25.10;53.90;;;;;;5034174;28;20279;-61
2023/09/12 07:59:36;;;;;;;5.90;5.50;;;25.10;53.80;;;;;;5035382;28;20186;-61
2023/09/12 08:02:01;;;;;;;5.83;5.43;;;25.10;53.80;;;;;;5032963;28;20241;-66
2023/09/12 08:04:27;;;;;;;5.63;5.20;;;25.10;53.90;;;;;;5033735;28;20185;-64
2023/09/12 08:06:52;;;;;;;5.10;4.80;;;25.10;53.90;;;;;;5035451;28;20244;-62
2023/09/12 08:09:18;;;;;;;5.27;4.97;;;25.10;53.80;;;;;;5036639;28;20194;-63
2023/09/12 08:11:43;;;;;;;10.40;5.23;;;25.10;53.90;;;;;;5037357;28;20197;-62
2023/09/12 08:14:09;;;;;;;5.10;4.80;;;25.10;53.80;;;;;;5034759;28;20704;-63
2023/09/12 08:16:34;;;;;;;5.00;4.70;;;25.10;53.90;;;;;;5035688;28;20197;-64
2023/09/12 08:19:00;;;;;;;4.30;4.10;;;25.10;53.90;;;;;;5037485;28;20210;-63
2023/09/12 08:21:25;;;;;;;5.30;5.10;;;25.10;54.40;;;;;;5035392;28;20274;-65
2023/09/12 08:23:51;;;;;;;5.57;5.27;;;25.10;54.00;;;;;;5038375;28;20297;-66
2023/09/12 08:26:16;;;;;;;4.50;4.20;;;25.10;54.00;;;;;;5037053;28;20276;-63
2023/09/12 08:28:42;;;;;;;4.13;3.93;;;25.10;54.00;;;;;;5036695;28;20340;-65
2023/09/12 08:31:08;;;;;;;4.87;4.67;;;25.10;54.00;;;;;;5037381;28;20204;-60
2023/09/12 08:33:34;;;;;;;5.03;4.63;;;25.10;54.00;;;;;;5035842;28;20470;-61
2023/09/12 08:35:59;;;;;;;4.63;4.40;;;25.10;54.00;;;;;;5037037;28;21017;-62
2023/09/12 08:38:25;;;;;;;5.00;4.80;;;25.10;54.10;;;;;;5038187;28;20190;-66
2023/09/12 08:40:51;;;;;;;4.77;4.57;;;25.10;54.10;;;;;;5035991;28;20565;-61
2023/09/12 08:43:17;;;;;;;4.40;4.20;;;25.10;54.00;;;;;;5038292;28;20181;-61
2023/09/12 08:45:46;;;;;;;4.90;4.60;;;25.10;54.00;;;;;;5037064;28;20438;-61
2023/09/12 08:48:12;;;;;;;4.30;4.10;;;25.10;54.00;;;;;;5036551;28;20200;-63
2023/09/12 08:50:38;;;;;;;4.60;4.33;;;25.10;54.00;;;;;;5037407;28;20998;-63
2023/09/12 08:53:04;;;;;;;4.07;3.87;;;25.10;54.00;;;;;;5037991;28;21247;-65
2023/09/12 08:55:33;;;;;;;3.87;3.67;;;25.10;54.10;;;;;;5037166;28;21034;-65
2023/09/12 08:57:59;;;;;;;5.03;4.70;;;25.10;54.10;;;;;;5037619;28;20178;-61
2023/09/12 09:00:27;;;;;;;3.70;3.50;;;25.10;54.00;;;;;;5035835;28;20447;-62
2023/09/12 09:02:52;;;;;;;4.50;4.30;;;25.10;54.00;;;;;;5035591;28;20873;-63
2023/09/12 09:05:20;;;;;;;3.63;3.43;;;25.10;54.70;;;;;;5035498;28;20431;-67
2023/09/12 09:07:47;;;;;;;4.50;4.30;;;25.20;54.80;;;;;;5033626;28;20284;-62
2023/09/12 09:10:17;;;;;;;3.87;3.67;;;25.10;53.90;;;;;;5031342;28;20484;-62
2023/09/12 09:12:45;;;;;;;3.73;3.53;;;25.10;54.00;;;;;;5033072;28;20577;-61
2023/09/12 09:15:20;;;;;;;4.43;4.13;;;25.10;53.90;;;;;;5034489;28;20442;-62
2023/09/12 09:17:47;;;;;;;3.73;3.53;;;25.20;54.00;;;;;;5031851;28;20474;-61
2023/09/12 09:20:45;;;;;;;3.87;3.67;;;25.10;53.90;;;;;;5035077;28;20539;-65
2023/09/12 09:23:10;;;;;;;3.73;3.50;;;25.20;53.90;;;;;;5022129;28;20485;-60
2023/09/12 09:25:43;;;;;;;4.13;3.93;;;25.20;54.00;;;;;;5033241;28;22006;-62
2023/09/12 09:28:19;;;;;;;4.10;3.80;;;25.20;54.00;;;;;;5033667;28;20183;-60
2023/09/12 09:30:50;;;;;;;3.70;3.50;;;25.20;53.90;;;;;;5031567;28;20450;-64
2023/09/12 09:33:16;;;;;;;4.90;4.50;;;25.20;53.90;;;;;;5033401;28;20831;-63
2023/09/12 09:35:43;;;;;;;3.70;3.50;;;25.20;53.90;;;;;;5032324;28;20434;-63
2023/09/12 09:38:09;;;;;;;4.30;4.10;;;25.20;53.90;;;;;;5033229;28;20186;-62
2023/09/12 09:40:36;;;;;;;4.63;4.33;;;25.20;53.90;;;;;;5034613;28;20441;-64
2023/09/12 09:43:03;;;;;;;4.67;4.47;;;25.20;53.90;;;;;;5031123;28;20190;-63
2023/09/12 09:45:32;;;;;;;3.30;3.10;;;25.20;53.90;;;;;;5033232;28;20471;-64
2023/09/12 09:48:07;;;;;;;3.87;3.57;;;25.20;53.80;;;;;;5031354;28;20519;-62
2023/09/12 09:50:37;;;;;;;4.37;4.10;;;25.20;53.80;;;;;;5034369;28;22461;-60
2023/09/12 09:53:04;;;;;;;3.83;3.63;;;25.20;53.80;;;;;;5038254;28;20851;-65
2023/09/12 09:55:30;;;;;;;4.30;4.10;;;25.20;53.80;;;;;;5033560;28;20530;-62
2023/09/12 09:57:56;;;;;;;4.30;4.10;;;25.20;53.80;;;;;;5032372;28;20855;-61
2023/09/12 10:00:22;;;;;;;4.17;3.97;;;25.20;53.80;;;;;;5031188;28;20189;-61
2023/09/12 10:02:51;;;;;;;5.10;4.70;;;25.20;53.80;;;;;;5031605;28;20238;-59
2023/09/12 10:05:17;;;;;;;4.73;4.43;;;25.20;53.80;;;;;;5035326;28;20435;-63
2023/09/12 10:07:46;;;;;;;5.13;4.83;;;25.20;53.80;;;;;;5033943;28;20420;-66
2023/09/12 10:10:12;;;;;;;3.80;3.60;;;25.20;53.80;;;;;;5033277;28;21383;-63
2023/09/12 10:12:48;;;;;;;4.00;3.80;;;25.30;53.90;;;;;;5032099;28;20533;-65
2023/09/12 10:15:17;;;;;;;4.40;4.20;;;25.20;53.80;;;;;;5034577;28;20198;-63
2023/09/12 10:17:46;;;;;;;4.50;4.20;;;25.20;53.80;;;;;;5033629;28;20471;-63
2023/09/12 10:20:18;;;;;;;4.87;4.63;;;25.20;53.80;;;;;;5034338;28;20434;-63
2023/09/12 10:22:55;;;;;;;5.17;4.87;;;25.30;53.80;;;;;;5034803;28;20500;-60
2023/09/12 10:25:22;;;;;;;5.07;4.87;;;25.20;53.80;;;;;;5032467;28;20532;-63
2023/09/12 10:27:49;;;;;;;4.73;4.43;;;25.20;53.80;;;;;;5031269;28;20484;-60
2023/09/12 10:30:15;;;;;;;4.70;4.40;;;25.30;53.90;;;;;;5033127;28;20545;-63
2023/09/12 10:32:44;;;;;;;5.00;4.70;;;25.20;53.90;;;;;;5034468;28;20434;-63
2023/09/12 10:35:10;;;;;;;5.43;4.93;;;25.20;53.80;;;;;;5033828;28;21100;-60
2023/09/12 10:37:40;;;;;;;5.50;5.10;;;25.30;53.90;;;;;;5033366;28;20467;-67
2023/09/12 10:40:08;;;;;;;4.60;4.40;;;25.30;53.80;;;;;;5034800;28;20713;-61
2023/09/12 10:42:35;;;;;;;4.87;4.63;;;25.20;53.80;;;;;;5031881;28;20960;-63
2023/09/12 10:45:03;;;;;;;6.40;6.00;;;25.20;53.80;;;;;;5033216;28;20529;-63
2023/09/12 10:47:29;;;;;;;5.07;4.77;;;25.20;53.80;;;;;;5033012;28;20453;-63
2023/09/12 10:49:56;;;;;;;4.83;4.63;;;25.30;53.80;;;;;;5034137;28;20441;-62
2023/09/12 10:52:29;;;;;;;5.43;5.03;;;25.20;53.80;;;;;;5035318;28;20451;-66
2023/09/12 10:54:55;;;;;;;5.40;5.10;;;25.30;53.80;;;;;;5035171;28;20470;-63
2023/09/12 10:57:20;;;;;;;6.33;5.97;;;25.30;53.80;;;;;;5033088;28;20430;-66
2023/09/12 11:00:15;;;;;;;5.53;5.23;;;25.30;53.80;;;;;;5033856;28;20435;-60
2023/09/12 11:02:41;;;;;;;4.80;4.60;;;25.30;53.80;;;;;;5021590;28;20861;-62
2023/09/12 11:05:27;;;;;;;5.10;4.80;;;25.30;53.90;;;;;;5032303;28;20428;-62
2023/09/12 11:07:57;;;;;;;5.60;5.30;;;25.30;53.80;;;;;;5034208;28;20486;-61
2023/09/12 11:10:24;;;;;;;5.53;5.23;;;25.30;53.80;;;;;;5033259;28;20942;-61
2023/09/12 11:12:54;;;;;;;5.63;5.23;;;25.30;53.80;;;;;;5031003;28;20933;-60
2023/09/12 11:15:22;;;;;;;5.80;5.50;;;25.30;53.80;;;;;;5030167;28;20428;-65
2023/09/12 11:17:49;;;;;;;5.60;5.30;;;25.30;53.80;;;;;;5027999;28;20443;-66
2023/09/12 11:20:16;;;;;;;5.00;4.70;;;25.30;53.80;;;;;;5029742;28;20439;-61
2023/09/12 11:22:47;;;;;;;5.60;5.30;;;25.30;53.80;;;;;;5036207;28;20510;-60
2023/09/12 11:25:19;;;;;;;4.97;4.77;;;25.30;53.70;;;;;;5036449;28;20507;-64
2023/09/12 11:27:51;;;;;;;5.73;5.43;;;25.30;53.80;;;;;;5032067;28;20478;-60
2023/09/12 11:30:30;;;;;;;5.60;5.30;;;25.30;53.90;;;;;;5032103;28;21212;-61
2023/09/12 11:32:56;;;;;;;6.07;5.77;;;25.30;53.80;;;;;;5033208;28;20529;-64
2023/09/12 11:35:29;;;;;;;5.67;5.37;;;25.30;53.80;;;;;;5028260;28;20430;-61
2023/09/12 11:37:57;;;;;;;5.33;5.03;;;25.30;53.80;;;;;;5031534;28;20454;-64
2023/09/12 11:40:27;;;;;;;6.00;5.70;;;25.30;53.80;;;;;;5033742;28;20919;-64
2023/09/12 11:42:53;;;;;;;5.50;5.20;;;25.30;53.70;;;;;;5034251;28;20467;-62
2023/09/12 11:45:20;;;;;;;5.40;5.20;;;25.30;53.70;;;;;;5033657;28;20676;-60
2023/09/12 11:47:47;;;;;;;6.10;5.80;;;25.30;53.70;;;;;;5037582;28;20181;-64
2023/09/12 11:50:35;;;;;;;5.07;4.77;;;25.30;53.80;;;;;;5033630;28;20435;-78
2023/09/12 11:53:11;;;;;;;5.73;5.53;;;25.30;53.70;;;;;;5032915;28;20491;-67
2023/09/12 11:55:43;;;;;;;5.40;5.10;;;25.30;53.70;;;;;;5035312;28;20953;-65
2023/09/12 11:58:08;;;;;;;5.20;5.00;;;25.30;53.80;;;;;;5033982;28;20435;-60
2023/09/12 12:00:34;;;;;;;5.50;5.20;;;25.30;53.80;;;;;;5035863;28;20457;-60
2023/09/12 12:02:59;;;;;;;6.00;5.70;;;25.20;53.70;;;;;;5037197;28;20229;-70
2023/09/12 12:05:25;;;;;;;6.27;5.80;;;25.30;53.80;;;;;;5027778;28;20197;-61
2023/09/12 12:07:51;;;;;;;6.10;5.77;;;25.30;53.80;;;;;;5027052;28;21230;-67
2023/09/12 12:10:17;;;;;;;5.43;5.13;;;25.30;53.80;;;;;;5023565;28;20192;-63
2023/09/12 12:12:45;;;;;;;5.40;5.10;;;25.30;53.80;;;;;;5029462;28;20225;-69
2023/09/12 12:15:12;;;;;;;5.70;5.40;;;25.30;53.70;;;;;;5031589;28;20508;-61
2023/09/12 12:17:40;;;;;;;5.97;5.67;;;25.30;53.80;;;;;;5025679;28;20454;-66
2023/09/12 12:20:09;;;;;;;5.90;5.60;;;25.30;53.80;;;;;;5023681;28;20522;-63
2023/09/12 12:22:36;;;;;;;5.40;5.10;;;25.30;53.80;;;;;;5029527;28;20431;-62
2023/09/12 12:25:11;;;;;;;5.23;5.03;;;25.30;53.80;;;;;;5027753;28;20438;-67
2023/09/12 12:27:39;;;;;;;5.40;5.20;;;25.30;53.70;;;;;;5028403;28;20446;-62
2023/09/12 12:30:09;;;;;;;6.40;6.00;;;25.20;53.70;;;;;;5028163;28;20719;-63
2023/09/12 12:32:39;;;;;;;6.03;5.63;;;25.30;53.80;;;;;;5024570;28;20438;-62
2023/09/12 12:35:07;;;;;;;5.20;5.00;;;25.30;53.80;;;;;;5026613;28;20474;-63
2023/09/12 12:37:32;;;;;;;6.60;6.20;;;25.20;53.70;;;;;;5027839;28;20515;-64
2023/09/12 12:39:59;;;;;;;5.73;5.40;;;25.30;53.80;;;;;;5028843;28;20439;-64
2023/09/12 12:42:32;;;;;;;6.43;6.07;;;25.30;54.50;;;;;;5024536;28;20208;-64
2023/09/12 12:44:58;;;;;;;6.33;6.03;;;25.30;53.80;;;;;;5027430;28;20446;-66
2023/09/12 12:47:24;;;;;;;6.13;5.83;;;25.20;53.70;;;;;;5025341;28;20446;-64